Kobe, Japan
Current Conditions -  °F | °C
As of 9:00 PM on Wednesday 28 Jan 2015 (Local Time) from RJBE Reporting Station
Few Clouds Few Clouds  
Wind Chill: 26°   Ceiling: Unl
Heat Index: 36°   Visibility: 6mi
Dew Point: 25°   Wind: 15mph
Humidity: 65%   Direction: 360°N
Pressure: 30.33"   Gusts: NA
Location:  34.68°N, 135.17°E
Report Text: RJBE 281200Z 36013KT 9999 FEW020 02/M04 Q1027
Loading
Personal Weather Stations






























Interactive Weather Map New forecast layout! Learn more

10-Day Weather Forecast

Advertisements
Track Severe Weather on mobile